LGZA

Dionysios Solomos Airport

Zakynthos Island, Greece
TAF LGZA 251700Z 2518/2603 02015G25KT 9999 FEW018 BECMG 2518/2520 04025KT
Issued Valid From Valid To
Sep-25 @ 17:00 UTC
(2 hours ago)
Sep-25 @ 18:00 UTC
(an hour ago)
Sep-26 @ 03:00 UTC
(in 8 hours)
Sep-25 @ 18:00 to Sep-26 @ 03:00
TAF LGZA 251700Z 2518/2603 02015G25KT 9999 FEW018
Wind Visibility Clouds
20° at 15 knots
 Gusting to 25 knots
10,000+ meters
  • Few at 1,800' AGL
Becoming Sep-25 @ 18:00 to Sep-26 @ 03:00
BECMG 2518/2520 04025KT
Wind Visibility Clouds
40° at 25 knots 10,000+ meters
  • Few at 1,800' AGL
TAF LGZA 251700Z 2518/2603 02015G25KT 9999 FEW018 BECMG 2518/2520 04025KT
Issued Sep-25 @ 17:00 UTC
(2 hours ago)
Valid From Sep-25 @ 18:00 UTC
(an hour ago)
Valid To Sep-26 @ 03:00 UTC
(in 8 hours)
Sep-25 @ 18:00 - Sep-26 @ 03:00
Wind Visibility
20° at 15 knots
 Gusting to 25 knots
10,000+ meters
Clouds
  • Few at 1,800' AGL
Becoming Sep-25 @ 18:00 - Sep-26 @ 03:00
Wind Visibility
40° at 25 knots 10,000+ meters
Clouds
  • Few at 1,800' AGL